Tinton Falls, NJ

05:40 AM EDT on Settembru 18, 2014 (GMT -0400)
Red Bank | Change Station
CLOSE
Current Station
Personal Weather Stations
Location: Red Bank, NJ
Elevation: 56 ft
Nearby Weather Stations

Elev 56 ft 40.35 °N, 74.06 °W | Updated 14 minutes ago

ċar
ċar
50.5 °F
Feels Like 50.5 °F
N
0.0
rih varjabbli rih from Nofs in-nhar

Illum
High -- | Low -- °F
--% Chance of Precip.
Yesterday
High -- | Low -- °F
Precip. -- in
6:39 AM 7:00 PM
Waning Crescent, 28% visible
pressjoni 29.97 in
vizibilita 10.0 mili
s ċar
punt ta' nida 47 °F
umdita 87%
Rainfall 0.00 in
Snow Depth Not available.
UV 0 out of 12
Pollen 3.70 out of 12
Ozone Good
PM2.5 Good
Flu Activity Not available.
METAR KBLM 180935Z AUTO 31003KT 10SM CLR 12/08 A2997 RMK AO1

More Conditions Fewer Conditions

pressjoni 29.97 in
vizibilita 10.0 mili
s ċar
punt ta' nida 47 °F
umdita 87%
Rainfall 0.00 in
Snow Depth Not available.
UV 0 out of 12
Pollen 3.70 out of 12
Ozone Good
PM2.5 Good
Flu Activity Not available.
METAR KBLM 180935Z AUTO 31003KT 10SM CLR 12/08 A2997 RMK AO1

More Conditions Fewer Conditions

10-Day Weather Forecast

Almanac

Astronomy

Sep. 18, 2014 Rise Set
Actual Time 6:39 AM EDT 7:00 PM EDT
Civil Twilight 6:12 AM EDT 7:27 PM EDT
Nautical Twilight 5:40 AM EDT 7:59 PM EDT
Astronomical Twilight 5:07 AM EDT 8:31 PM EDT
Moon 1:29 AM EDT 3:50 PM EDT
Length Of Visible Light 13h 14m
Length of Day
12h 20m
Tomorrow will be 2m 38s shorter.
Waning Crescent, 28% of the Moon is Illuminated
Illum
Waning Crescent
Sep 24
New
Oct 1
First Quarter
Oct 8
Full
Oct 15
Last Quarter

Today's Extremes

State Highs State Lows

Community

WunderPhotos

Upload Photos

1,754,312 photos uploaded!

Nearby

Air Quality

  Air Quality AQ Index Pollutant
Yesterday Good
PM2.5
Yesterday Good
OZONE
Current Good
PM2.5
Current Good
OZONE
Il-Hamis Moderate
PM2.5
Il-Hamis Good
OZONE
Il-Gimgha Good
OZONE
Il-Gimgha Good
PM2.5
Is-Sibt Good
OZONE
Is-Sibt Good
PM2.5

Snow Depth

Station Depth Elevation
No new snow has been reported.

Earthquake Activity

City Distance Mag. Time & Date
No recent earthquake activity has been reported nearby.
Minimum magnitude displayed is 2.5.

Coastal Water Temperatures

Post temperatura
Sandy Hook, NJ 69.1 °F
Bergen Point West Reach, NJ 71.1 °F
The Battery, NY 71.1 °F

Nearby Weather Stations